PAGH

Shungnak Airport

Airport
ICAO code
PAGH
IATA Code
SHG
Summary
ICAO Region
NAM
ICAO Territory
Location

, Alaska

Serving
Shungnak
Elevation
197 ft
Coordinates
66° 53' 17" N , 157° 9' 45" W
Metar
PAGH 192056Z AUTO VRB03KT 10SM FEW031 19/11 A2999 RMK AO2 SLP161 T01890106 51007

Runways

Designator Length Width Surface Rops
9/27 1219 18 GVL No/No

Airport map

Aerial View

SKYbrary Partners:

Safety knowledge contributed by: